Time;durP1;ratioP1;P1;durP2;ratioP2;P2;SDS_P1;SDS_P2;PMS_P1;PMS_P2;Temp;Humidity;BMP_temperature;BMP_pressure;BME280_temperature;BME280_humidity;BME280_pressure;Samples;Min_cycle;Max_cycle;Signal;HPM_P1;HPM_P2
2022/10/07 00:02:22;;;;;;;0.00;0.00;;;;;;;7.58;100.00;102633.94;10347085;28;20042;-71
2022/10/07 00:07:23;;;;;;;0.00;0.00;;;;;;;7.55;100.00;102626.16;10354437;28;20038;-71
2022/10/07 00:12:23;;;;;;;0.00;0.00;;;;;;;7.52;100.00;102629.00;10359117;28;20036;-72
2022/10/07 00:17:24;;;;;;;0.00;0.00;;;;;;;7.53;100.00;102621.91;10356303;28;20049;-72
2022/10/07 00:22:24;;;;;;;0.00;0.00;;;;;;;7.53;100.00;102622.75;10350649;28;20033;-71
2022/10/07 00:27:24;;;;;;;0.00;0.00;;;;;;;7.51;100.00;102615.88;10346939;28;20029;-72
2022/10/07 00:32:24;;;;;;;0.00;0.00;;;;;;;7.55;100.00;102627.97;10335184;28;20049;-72
2022/10/07 00:37:25;;;;;;;0.00;0.00;;;;;;;7.53;100.00;102613.94;10350328;28;20428;-72
2022/10/07 00:42:26;;;;;;;0.00;0.00;;;;;;;7.45;100.00;102601.19;10346851;28;20042;-72
2022/10/07 00:47:30;;;;;;;0.00;0.00;;;;;;;7.39;100.00;102597.13;10334904;28;20060;-71
2022/10/07 00:52:40;;;;;;;0.00;0.00;;;;;;;7.36;100.00;102591.13;10342626;28;20537;-72
2022/10/07 00:57:42;;;;;;;0.00;0.00;;;;;;;7.35;100.00;102592.09;10348123;28;20018;-71
2022/10/07 01:02:43;;;;;;;0.00;0.00;;;;;;;7.26;100.00;102589.03;10358504;23;20039;-74
2022/10/07 01:07:46;;;;;;;0.00;0.00;;;;;;;7.21;100.00;102588.50;10327009;28;20041;-74
2022/10/07 01:13:04;;;;;;;0.00;0.00;;;;;;;7.16;100.00;102574.66;10348012;28;20026;-74
2022/10/07 01:18:17;;;;;;;0.00;0.00;;;;;;;7.15;100.00;102564.16;10367733;28;20030;-74
2022/10/07 01:23:47;;;;;;;0.00;0.00;;;;;;;7.18;100.00;102564.81;10366781;28;20018;-74
2022/10/07 01:28:53;;;;;;;0.00;0.00;;;;;;;7.15;100.00;102558.84;10344895;28;20068;-74
2022/10/07 01:33:54;;;;;;;0.00;0.00;;;;;;;7.11;100.00;102550.25;10342557;28;20037;-74
2022/10/07 01:39:01;;;;;;;0.00;0.00;;;;;;;7.08;100.00;102550.44;10367278;28;20033;-74
2022/10/07 01:44:02;;;;;;;0.00;0.00;;;;;;;7.05;100.00;102537.38;10366648;28;20030;-74
2022/10/07 01:49:04;;;;;;;0.00;0.00;;;;;;;7.06;100.00;102539.06;10366620;28;20026;-74
2022/10/07 01:54:10;;;;;;;0.00;0.00;;;;;;;7.07;100.00;102532.84;10366311;28;20120;-74
2022/10/07 01:59:29;;;;;;;0.00;0.00;;;;;;;7.06;100.00;102523.19;10341221;28;20036;-74
2022/10/07 02:04:59;;;;;;;0.00;0.00;;;;;;;7.06;100.00;102512.56;10339298;28;20022;-74
2022/10/07 02:10:26;;;;;;;0.00;0.00;;;;;;;7.03;100.00;102507.47;10333171;28;20030;-74
2022/10/07 02:15:43;;;;;;;0.00;0.00;;;;;;;6.98;100.00;102498.94;10360769;28;20064;-74
2022/10/07 02:20:48;;;;;;;0.00;0.00;;;;;;;6.94;100.00;102489.50;10373753;28;20040;-74
2022/10/07 02:25:51;;;;;;;0.00;0.00;;;;;;;6.89;100.00;102486.28;10374659;28;20026;-75
2022/10/07 02:30:59;;;;;;;0.00;0.00;;;;;;;6.79;100.00;102478.06;10358595;28;20548;-75
2022/10/07 02:36:06;;;;;;;0.00;0.00;;;;;;;6.77;100.00;102470.19;10373180;28;20109;-75
2022/10/07 02:41:30;;;;;;;0.00;0.00;;;;;;;6.73;100.00;102473.97;10367884;28;20111;-75
2022/10/07 02:46:37;;;;;;;0.00;0.00;;;;;;;6.74;100.00;102473.03;10373235;28;20032;-75
2022/10/07 02:51:46;;;;;;;0.00;0.00;;;;;;;6.75;100.00;102461.50;10354474;28;20471;-75
2022/10/07 02:56:48;;;;;;;0.00;0.00;;;;;;;6.73;100.00;102454.59;10349221;28;20116;-75
2022/10/07 03:01:52;;;;;;;0.00;0.00;;;;;;;6.70;100.00;102452.97;10313731;28;20448;-75
2022/10/07 03:06:54;;;;;;;0.00;0.00;;;;;;;6.66;100.00;102447.94;10331963;28;20022;-75
2022/10/07 03:11:54;;;;;;;0.00;0.00;;;;;;;6.64;100.00;102442.78;10337999;28;20500;-75
2022/10/07 03:16:54;;;;;;;0.00;0.00;;;;;;;6.66;100.00;102429.41;10354068;28;20026;-74
2022/10/07 03:21:55;;;;;;;0.00;0.00;;;;;;;6.69;100.00;102434.53;10371292;28;20022;-75
2022/10/07 03:26:56;;;;;;;0.00;0.00;;;;;;;6.64;100.00;102426.88;10364193;28;20030;-75
2022/10/07 03:31:56;;;;;;;0.00;0.00;;;;;;;6.61;100.00;102415.63;10330191;28;20093;-75
2022/10/07 03:36:57;;;;;;;0.00;0.00;;;;;;;6.61;100.00;102416.47;10331137;28;20035;-75
2022/10/07 03:41:57;;;;;;;0.00;0.00;;;;;;;6.70;100.00;102407.97;10329813;28;20050;-75
2022/10/07 03:46:58;;;;;;;0.00;0.00;;;;;;;6.76;100.00;102407.56;10334108;28;20385;-75
2022/10/07 03:51:59;;;;;;;0.00;0.00;;;;;;;6.78;100.00;102403.03;10329478;28;20022;-75
2022/10/07 03:56:59;;;;;;;0.00;0.00;;;;;;;6.80;100.00;102398.47;10329310;28;20073;-75
2022/10/07 04:02:00;;;;;;;0.00;0.00;;;;;;;6.82;100.00;102408.16;10328755;28;20058;-75
2022/10/07 04:07:00;;;;;;;0.00;0.00;;;;;;;6.80;100.00;102400.28;10329455;28;20022;-75
2022/10/07 04:12:00;;;;;;;0.00;0.00;;;;;;;6.77;100.00;102385.44;10328856;28;20033;-75
2022/10/07 04:17:01;;;;;;;0.00;0.00;;;;;;;6.77;100.00;102384.59;10329215;28;20030;-73
2022/10/07 04:22:01;;;;;;;0.00;0.00;;;;;;;6.78;100.00;102381.84;10345304;28;20125;-74
2022/10/07 04:27:03;;;;;;;0.00;0.00;;;;;;;6.75;100.00;102371.47;10335563;28;20534;-74
2022/10/07 04:32:04;;;;;;;0.00;0.00;;;;;;;6.74;100.00;102380.34;10345381;28;20472;-74
2022/10/07 04:37:04;;;;;;;0.00;0.00;;;;;;;6.75;100.00;102368.81;10369269;28;20032;-74
2022/10/07 04:42:05;;;;;;;0.00;0.00;;;;;;;6.76;100.00;102374.94;10346733;28;20026;-74
2022/10/07 04:47:05;;;;;;;0.00;0.00;;;;;;;6.74;100.00;102361.78;10350176;28;20257;-74
2022/10/07 04:52:06;;;;;;;0.00;0.00;;;;;;;6.75;100.00;102357.38;10346764;28;20037;-74
2022/10/07 04:57:08;;;;;;;0.00;0.00;;;;;;;6.77;100.00;102352.81;10359543;28;20077;-74
2022/10/07 05:02:09;;;;;;;0.00;0.00;;;;;;;6.74;100.00;102353.84;10334193;28;20025;-74
2022/10/07 05:07:09;;;;;;;0.00;0.00;;;;;;;6.67;100.00;102357.00;10352784;28;20026;-74
2022/10/07 05:12:10;;;;;;;0.00;0.00;;;;;;;6.63;100.00;102356.31;10351277;28;20253;-74
2022/10/07 05:17:12;;;;;;;0.00;0.00;;;;;;;6.57;100.00;102349.63;10348742;28;20033;-74
2022/10/07 05:22:12;;;;;;;0.00;0.00;;;;;;;6.61;100.00;102346.78;10340536;28;20575;-74
2022/10/07 05:27:13;;;;;;;0.00;0.00;;;;;;;6.60;100.00;102340.63;10338805;28;20032;-74
2022/10/07 05:32:14;;;;;;;0.00;0.00;;;;;;;6.62;100.00;102344.03;10361728;28;20025;-71
2022/10/07 05:37:14;;;;;;;0.00;0.00;;;;;;;6.66;100.00;102340.25;10374098;28;20373;-72
2022/10/07 05:42:15;;;;;;;0.00;0.00;;;;;;;6.68;100.00;102333.06;10336555;28;20022;-74
2022/10/07 05:47:17;;;;;;;0.00;0.00;;;;;;;6.71;100.00;102332.84;10327651;28;20030;-74
2022/10/07 05:52:19;;;;;;;0.00;0.00;;;;;;;7.07;100.00;102333.25;10318552;28;20049;-74
2022/10/07 05:57:21;;;;;;;0.00;0.00;;;;;;;7.64;100.00;102330.34;10337013;28;20049;-74
2022/10/07 06:02:21;;;;;;;0.00;0.00;;;;;;;8.37;100.00;102332.41;10338623;28;20030;-74
2022/10/07 06:07:23;;;;;;;0.00;0.00;;;;;;;9.20;100.00;102327.31;10375011;28;20022;-74
2022/10/07 06:17:45;;;;;;;0.10;0.10;;;;;;;10.90;100.00;102325.75;10334097;28;20026;-72
2022/10/07 06:22:45;;;;;;;0.10;0.10;;;;;;;11.63;100.00;102327.66;10321569;28;20111;-74
2022/10/07 06:27:46;;;;;;;0.10;0.10;;;;;;;12.10;100.00;102330.81;10344806;28;20481;-74
2022/10/07 06:32:46;;;;;;;0.03;0.03;;;;;;;12.54;100.00;102326.06;10333372;28;20038;-74
2022/10/07 06:37:46;;;;;;;0.10;0.10;;;;;;;13.15;100.00;102330.44;10339998;28;20117;-74
2022/10/07 06:42:46;;;;;;;0.10;0.10;;;;;;;13.79;100.00;102324.53;10334276;28;20037;-74
2022/10/07 06:47:47;;;;;;;0.10;0.10;;;;;;;14.37;100.00;102334.22;10333853;28;20105;-74
2022/10/07 06:52:47;;;;;;;0.10;0.10;;;;;;;14.91;100.00;102324.50;10333734;28;20034;-74
2022/10/07 06:57:47;;;;;;;0.00;0.00;;;;;;;15.52;100.00;102322.06;10333774;28;20026;-74
2022/10/07 07:02:47;;;;;;;0.10;0.10;;;;;;;15.65;100.00;102321.66;10354686;23;20050;-73
2022/10/07 07:07:48;;;;;;;0.00;0.00;;;;;;;16.19;100.00;102319.69;10371911;28;20084;-73
2022/10/07 07:12:52;;;;;;;0.00;0.00;;;;;;;16.86;100.00;102322.53;10371994;28;20029;-74
2022/10/07 07:17:52;;;;;;;0.08;0.08;;;;;;;16.83;100.00;102320.16;10354286;28;20481;-74
2022/10/07 07:22:53;;;;;;;0.10;0.10;;;;;;;17.40;100.00;102317.56;10371733;28;20104;-75
2022/10/07 07:27:54;;;;;;;0.00;0.00;;;;;;;17.80;100.00;102310.47;10371493;28;20026;-75
2022/10/07 07:32:54;;;;;;;0.10;0.10;;;;;;;17.86;100.00;102315.22;10370731;28;20101;-74
2022/10/07 07:37:55;;;;;;;0.07;0.07;;;;;;;17.99;100.00;102304.72;10370687;28;20026;-73
2022/10/07 07:42:55;;;;;;;0.00;0.00;;;;;;;18.16;100.00;102296.59;10370562;28;20022;-74
2022/10/07 07:47:56;;;;;;;0.10;0.10;;;;;;;18.13;100.00;102300.47;10370980;28;20017;-74
2022/10/07 07:52:58;;;;;;;0.10;0.10;;;;;;;18.09;100.00;102297.31;10365219;28;20025;-73
2022/10/07 07:57:59;;;;;;;0.00;0.00;;;;;;;16.91;100.00;102287.91;10369167;28;20435;-75
2022/10/07 08:02:59;;;;;;;0.10;0.10;;;;;;;15.72;100.00;102279.78;10369041;28;20088;-76
2022/10/07 08:07:59;;;;;;;0.03;0.03;;;;;;;14.76;100.00;102275.06;10370546;28;20036;-75
2022/10/07 08:13:00;;;;;;;0.10;0.10;;;;;;;14.36;100.00;102264.66;10369030;28;20079;-75
2022/10/07 08:18:02;;;;;;;0.10;0.10;;;;;;;14.52;100.00;102261.38;10368960;28;20113;-75
2022/10/07 08:23:05;;;;;;;0.00;0.00;;;;;;;14.40;100.00;102253.50;10368817;28;20477;-75
2022/10/07 08:28:05;;;;;;;0.00;0.00;;;;;;;15.05;100.00;102249.84;10351290;28;20022;-74
2022/10/07 08:33:06;;;;;;;0.00;0.00;;;;;;;16.18;100.00;102242.75;10368143;28;20041;-75
2022/10/07 08:38:06;;;;;;;0.00;0.00;;;;;;;16.14;100.00;102238.69;10368476;28;20092;-75
2022/10/07 08:43:08;;;;;;;0.10;0.10;;;;;;;16.20;100.00;102244.28;10367470;28;20480;-74
2022/10/07 08:48:16;;;;;;;0.08;0.08;;;;;;;15.94;100.00;102232.72;10348612;28;20113;-74
2022/10/07 08:53:21;;;;;;;0.00;0.00;;;;;;;15.29;100.00;102230.44;10368002;28;20028;-75
2022/10/07 08:59:01;;;;;;;0.00;0.00;;;;;;;15.05;100.00;102231.91;10367852;28;20124;-75
2022/10/07 09:04:19;;;;;;;0.00;0.00;;;;;;;15.38;100.00;102222.25;10347901;28;20048;-76
2022/10/07 09:09:42;;;;;;;0.00;0.00;;;;;;;16.15;100.00;102210.81;10366146;28;20381;-76
2022/10/07 09:14:46;;;;;;;0.00;0.00;;;;;;;16.42;100.00;102205.19;10366459;28;20030;-74
2022/10/07 09:19:55;;;;;;;0.10;0.10;;;;;;;16.60;100.00;102196.16;10368175;28;20050;-75
2022/10/07 09:25:26;;;;;;;0.10;0.10;;;;;;;16.55;100.00;102201.16;10367879;28;20050;-75
2022/10/07 09:30:28;;;;;;;0.03;0.03;;;;;;;16.57;100.00;102193.78;10348753;28;20416;-75
2022/10/07 09:35:30;;;;;;;0.00;0.00;;;;;;;16.57;100.00;102170.41;10366723;28;20057;-75
2022/10/07 09:46:28;;;;;;;0.00;0.00;;;;;;;16.85;100.00;102183.59;10365649;28;20046;-76
2022/10/07 09:51:29;;;;;;;0.00;0.00;;;;;;;16.90;100.00;102165.09;10363835;28;20113;-76
2022/10/07 09:56:37;;;;;;;0.00;0.00;;;;;;;16.92;100.00;102155.00;10366850;28;20032;-75
2022/10/07 10:01:37;;;;;;;0.00;0.00;;;;;;;16.86;100.00;102164.59;10364904;28;20030;-76
2022/10/07 10:06:44;;;;;;;0.10;0.10;;;;;;;16.92;100.00;102163.91;10367235;28;20021;-75
2022/10/07 10:11:58;;;;;;;0.10;0.10;;;;;;;16.82;100.00;102147.09;10366203;28;20113;-75
2022/10/07 10:16:58;;;;;;;0.00;0.00;;;;;;;16.56;100.00;102152.59;10365709;28;20026;-75
2022/10/07 10:21:59;;;;;;;0.10;0.10;;;;;;;16.41;100.00;102147.03;10368677;28;20018;-74
2022/10/07 10:27:05;;;;;;;0.10;0.10;;;;;;;16.33;100.00;102135.44;10373948;28;20024;-75
2022/10/07 10:32:12;;;;;;;0.00;0.00;;;;;;;16.29;100.00;102125.00;10356121;28;20024;-76
2022/10/07 10:37:20;;;;;;;0.00;0.00;;;;;;;16.32;100.00;102113.09;10372219;28;20026;-75
2022/10/07 10:42:30;;;;;;;0.00;0.00;;;;;;;16.25;100.00;102107.50;10373395;28;20022;-76
2022/10/07 10:47:52;;;;;;;0.10;0.10;;;;;;;16.14;100.00;102099.75;10373368;28;20104;-76
2022/10/07 10:52:57;;;;;;;0.10;0.10;;;;;;;16.01;100.00;102100.22;10371414;28;20053;-76
2022/10/07 10:58:17;;;;;;;0.00;0.00;;;;;;;16.15;100.00;102092.56;10373439;28;20069;-75
2022/10/07 11:03:45;;;;;;;0.10;0.10;;;;;;;16.17;100.00;102088.66;10368751;28;20397;-75
2022/10/07 11:08:47;;;;;;;0.00;0.00;;;;;;;16.10;100.00;102084.97;10372925;28;20018;-76
2022/10/07 11:13:51;;;;;;;0.00;0.00;;;;;;;16.14;100.00;102067.50;10367450;28;20480;-78
2022/10/07 11:18:57;;;;;;;0.10;0.10;;;;;;;16.39;100.00;102060.31;10355236;28;20084;-79
2022/10/07 11:24:09;;;;;;;0.00;0.00;;;;;;;16.46;100.00;102052.41;10380110;28;20030;-78
2022/10/07 11:29:30;;;;;;;0.10;0.10;;;;;;;16.34;100.00;102045.69;10377976;28;20036;-78
2022/10/07 11:34:40;;;;;;;0.00;0.00;;;;;;;16.21;100.00;102038.13;10371313;28;20057;-78
2022/10/07 11:39:40;;;;;;;0.10;0.10;;;;;;;16.20;100.00;102033.72;10380320;28;20025;-78
2022/10/07 11:44:52;;;;;;;0.00;0.00;;;;;;;16.16;100.00;102033.22;10371144;28;20033;-78
2022/10/07 11:49:59;;;;;;;0.00;0.00;;;;;;;16.22;100.00;102021.81;10369084;28;20018;-77
2022/10/07 11:55:04;;;;;;;0.00;0.00;;;;;;;16.25;100.00;102010.72;10370800;28;20030;-77
2022/10/07 12:00:21;;;;;;;0.10;0.10;;;;;;;16.20;100.00;102006.84;10370092;28;20030;-78
2022/10/07 12:05:33;;;;;;;0.10;0.10;;;;;;;16.29;100.00;101992.44;10369758;28;20022;-78
2022/10/07 12:10:34;;;;;;;0.05;0.05;;;;;;;16.29;100.00;101985.19;10369796;28;20029;-77
2022/10/07 12:15:42;;;;;;;0.10;0.10;;;;;;;16.47;100.00;101976.09;10352129;28;20033;-77
2022/10/07 12:20:51;;;;;;;0.00;0.00;;;;;;;16.56;100.00;101960.81;10370060;28;20026;-78
2022/10/07 12:26:04;;;;;;;0.00;0.00;;;;;;;16.49;100.00;101947.19;10369263;28;20100;-78
2022/10/07 12:31:12;;;;;;;0.10;0.10;;;;;;;16.52;100.00;101944.16;10368482;28;20056;-78
2022/10/07 12:36:21;;;;;;;0.10;0.10;;;;;;;16.52;100.00;101939.63;10367101;28;20022;-77
2022/10/07 12:41:45;;;;;;;0.10;0.10;;;;;;;16.47;100.00;101938.47;10368857;28;20034;-78
2022/10/07 12:46:51;;;;;;;0.00;0.00;;;;;;;16.51;100.00;101939.78;10369003;28;20022;-78
2022/10/07 12:51:54;;;;;;;0.10;0.10;;;;;;;16.62;100.00;101915.22;10367896;28;20037;-77
2022/10/07 12:56:54;;;;;;;0.00;0.00;;;;;;;16.64;100.00;101910.53;10368223;28;20018;-78
2022/10/07 13:02:16;;;;;;;0.00;0.00;;;;;;;16.50;100.00;101913.91;10366998;28;20084;-78
2022/10/07 13:07:31;;;;;;;0.00;0.00;;;;;;;16.47;100.00;101895.44;10424936;23;20324;-88
2022/10/07 13:12:54;;;;;;;0.00;0.00;;;;;;;16.35;100.00;101896.78;10409622;28;20028;-88
2022/10/07 13:18:05;;;;;;;0.10;0.10;;;;;;;16.25;100.00;101888.91;10402630;28;20025;-87
2022/10/07 13:23:15;;;;;;;0.10;0.10;;;;;;;16.27;100.00;101890.41;10412413;28;20044;-89
2022/10/07 13:28:21;;;;;;;0.10;0.10;;;;;;;16.32;100.00;101886.38;10444674;23;20399;-74
2022/10/07 13:33:30;;;;;;;0.10;0.10;;;;;;;16.31;100.00;101880.16;10441252;28;20124;-73
2022/10/07 13:38:30;;;;;;;0.10;0.10;;;;;;;16.26;100.00;101869.94;10421656;28;20029;-72
2022/10/07 13:43:33;;;;;;;0.00;0.00;;;;;;;16.17;100.00;101873.63;10412407;28;20021;-76
2022/10/07 13:48:37;;;;;;;0.10;0.10;;;;;;;16.05;100.00;101872.31;10432869;28;20104;-74
2022/10/07 13:53:37;;;;;;;;;;;;;;;16.00;100.00;101869.31;10417758;28;20037;-74
2022/10/07 13:58:38;;;;;;;0.00;0.00;;;;;;;16.06;100.00;101865.94;10441437;28;20018;-74
2022/10/07 14:04:19;;;;;;;0.10;0.10;;;;;;;16.09;100.00;101841.41;10439418;28;20043;-74
2022/10/07 14:09:31;;;;;;;0.00;0.00;;;;;;;16.14;100.00;101832.81;10347213;28;20037;-74
2022/10/07 14:14:38;;;;;;;0.00;0.00;;;;;;;16.10;100.00;101824.25;10439376;28;20060;-73
2022/10/07 14:19:38;;;;;;;0.10;0.10;;;;;;;16.01;100.00;101812.69;10437190;28;20021;-73
2022/10/07 14:24:39;;;;;;;0.10;0.10;;;;;;;15.97;100.00;101813.19;10453555;28;20028;-74
2022/10/07 14:29:39;;;;;;;0.10;0.10;;;;;;;15.93;100.00;101801.13;10440756;28;20750;-73
2022/10/07 14:40:02;;;;;;;0.00;0.00;;;;;;;16.03;100.00;101799.09;10412821;28;20033;-74
2022/10/07 14:45:07;;;;;;;0.10;0.10;;;;;;;16.00;100.00;101783.31;10427875;28;20021;-73
2022/10/07 14:50:07;;;;;;;0.10;0.10;;;;;;;15.88;100.00;101782.81;10453489;28;20090;-74
2022/10/07 14:55:26;;;;;;;0.10;0.10;;;;;;;15.79;100.00;101779.28;10437995;28;20505;-74
2022/10/07 15:00:30;;;;;;;0.00;0.00;;;;;;;15.80;100.00;101767.56;10410906;28;20452;-73
2022/10/07 15:05:32;;;;;;;0.10;0.10;;;;;;;15.76;100.00;101768.06;10450501;28;20032;-73
2022/10/07 15:10:32;;;;;;;0.00;0.00;;;;;;;15.75;100.00;101764.53;10434661;28;20408;-73
2022/10/07 15:15:36;;;;;;;0.00;0.00;;;;;;;15.70;100.00;101755.31;10437508;28;20028;-73
2022/10/07 15:20:38;;;;;;;0.10;0.10;;;;;;;15.62;100.00;101745.41;10411063;28;20025;-74
2022/10/07 15:25:39;;;;;;;0.10;0.10;;;;;;;15.53;100.00;101747.25;10416551;28;20025;-74
2022/10/07 15:30:39;;;;;;;0.10;0.10;;;;;;;15.44;100.00;101742.06;10442357;28;20032;-73
2022/10/07 15:35:40;;;;;;;0.00;0.00;;;;;;;15.35;100.00;101738.53;10427785;28;20113;-73
2022/10/07 15:40:52;;;;;;;0.10;0.10;;;;;;;15.26;100.00;101735.00;10443123;28;20021;-73
2022/10/07 15:45:55;;;;;;;0.10;0.10;;;;;;;15.15;100.00;101728.16;10417688;28;20100;-73
2022/10/07 15:50:56;;;;;;;0.00;0.00;;;;;;;15.05;100.00;101722.09;10446885;28;20399;-73
2022/10/07 15:55:57;;;;;;;0.08;0.08;;;;;;;14.97;100.00;101710.50;10443320;28;20025;-73
2022/10/07 16:01:05;;;;;;;0.10;0.10;;;;;;;14.90;100.00;101713.03;10447622;28;20029;-74
2022/10/07 16:06:09;;;;;;;0.10;0.10;;;;;;;14.84;100.00;101703.81;10443497;28;20030;-73
2022/10/07 16:11:10;;;;;;;0.10;0.10;;;;;;;14.77;100.00;101704.63;10406453;28;20021;-73
2022/10/07 16:16:17;;;;;;;0.10;0.10;;;;;;;14.69;100.00;101705.47;10446305;28;20051;-73
2022/10/07 16:21:28;;;;;;;0.00;0.00;;;;;;;14.62;100.00;101712.47;10442009;28;20029;-74
2022/10/07 16:26:29;;;;;;;0.03;0.03;;;;;;;14.57;100.00;101710.28;10428229;28;21038;-74
2022/10/07 16:31:30;;;;;;;0.10;0.10;;;;;;;14.52;100.00;101714.47;10435805;28;20070;-73
2022/10/07 16:36:31;;;;;;;0.10;0.10;;;;;;;14.45;100.00;101706.19;10441336;28;20397;-74
2022/10/07 16:41:31;;;;;;;0.00;0.00;;;;;;;14.39;100.00;101713.03;10435427;28;20044;-73
2022/10/07 16:46:32;;;;;;;0.10;0.10;;;;;;;14.33;100.00;101705.66;10412756;28;20334;-74
2022/10/07 16:51:35;;;;;;;0.10;0.10;;;;;;;14.25;100.00;101702.94;10407792;28;20044;-73
2022/10/07 16:56:35;;;;;;;0.10;0.10;;;;;;;14.17;100.00;101702.94;10416984;28;20028;-74
2022/10/07 17:01:36;;;;;;;0.10;0.10;;;;;;;14.09;100.00;101700.22;10445351;28;20017;-74
2022/10/07 17:06:37;;;;;;;0.10;0.10;;;;;;;14.02;100.00;101689.28;10437337;28;20018;-73
2022/10/07 17:11:38;;;;;;;0.10;0.10;;;;;;;13.96;100.00;101684.56;10430422;28;20044;-73
2022/10/07 17:16:44;;;;;;;0.10;0.10;;;;;;;13.89;100.00;101679.00;10448536;28;20455;-73
2022/10/07 17:21:46;;;;;;;0.10;0.10;;;;;;;13.87;100.00;101683.69;10427001;28;20078;-74
2022/10/07 17:26:48;;;;;;;0.10;0.10;;;;;;;13.81;100.00;101678.97;10418582;28;20112;-74
2022/10/07 17:31:49;;;;;;;0.10;0.10;;;;;;;13.76;100.00;101684.00;10422423;28;20041;-73
2022/10/07 17:36:50;;;;;;;0.00;0.00;;;;;;;13.71;100.00;101683.63;10416338;28;20207;-74
2022/10/07 17:41:50;;;;;;;0.10;0.10;;;;;;;13.66;100.00;101676.06;10432362;28;20305;-73
2022/10/07 17:46:51;;;;;;;0.10;0.10;;;;;;;13.61;100.00;101670.31;10453206;28;20357;-74
2022/10/07 17:51:51;;;;;;;0.10;0.10;;;;;;;13.58;100.00;101662.63;10442261;28;20609;-74
2022/10/07 17:56:51;;;;;;;0.10;0.10;;;;;;;13.56;100.00;101667.31;10455807;28;20333;-74
2022/10/07 18:01:52;;;;;;;0.10;0.10;;;;;;;13.56;100.00;101657.44;10455113;28;20032;-74
2022/10/07 18:06:52;;;;;;;0.10;0.10;;;;;;;13.53;100.00;101640.84;10431194;28;20017;-74
2022/10/07 18:17:12;;;;;;;0.10;0.10;;;;;;;13.48;100.00;101646.66;10445785;28;20029;-74
2022/10/07 18:22:12;;;;;;;0.10;0.10;;;;;;;13.44;100.00;101647.13;10435754;28;20021;-73
2022/10/07 18:27:12;;;;;;;0.17;0.17;;;;;;;13.40;100.00;101643.09;10454462;28;20159;-73
2022/10/07 18:32:13;;;;;;;0.10;0.10;;;;;;;13.37;100.00;101638.91;10453969;28;20017;-74
2022/10/07 18:37:13;;;;;;;0.10;0.10;;;;;;;13.35;100.00;101644.44;10422110;28;20025;-74
2022/10/07 18:42:14;;;;;;;0.10;0.10;;;;;;;13.32;100.00;101630.50;10428880;28;20362;-74
2022/10/07 18:47:14;;;;;;;0.10;0.10;;;;;;;13.26;100.00;101623.09;10423574;28;20353;-74
2022/10/07 18:52:15;;;;;;;0.10;0.10;;;;;;;13.19;100.00;101619.38;10412760;28;20118;-74
2022/10/07 18:57:15;;;;;;;0.10;0.10;;;;;;;13.14;100.00;101627.84;10446097;28;20017;-73
2022/10/07 19:02:15;;;;;;;0.10;0.10;;;;;;;13.07;100.00;101624.97;10434609;28;20460;-74
2022/10/07 19:07:16;;;;;;;0.10;0.10;;;;;;;13.00;100.00;101617.72;10435861;22;20417;-75
2022/10/07 19:17:35;;;;;;;0.10;0.10;;;;;;;12.89;100.00;101608.97;10411028;28;20108;-75
2022/10/07 19:22:35;;;;;;;0.10;0.10;;;;;;;12.86;100.00;101608.44;10412289;28;20021;-75
2022/10/07 19:27:35;;;;;;;0.10;0.10;;;;;;;12.80;100.00;101604.53;10412923;28;20025;-75
2022/10/07 19:32:36;;;;;;;0.10;0.10;;;;;;;12.83;100.00;101606.06;10411761;28;20104;-75
2022/10/07 19:37:37;;;;;;;0.10;0.10;;;;;;;12.81;100.00;101592.84;10411758;28;20021;-75
2022/10/07 19:42:37;;;;;;;0.10;0.10;;;;;;;12.77;100.00;101587.94;10411481;28;20479;-74
2022/10/07 19:47:37;;;;;;;0.10;0.10;;;;;;;12.74;100.00;101593.59;10411768;28;20071;-75
2022/10/07 19:52:37;;;;;;;0.10;0.10;;;;;;;12.73;100.00;101586.59;10411253;28;20032;-74
2022/10/07 19:57:38;;;;;;;0.10;0.10;;;;;;;12.73;100.00;101575.91;10411310;28;20504;-74
2022/10/07 20:02:39;;;;;;;0.10;0.10;;;;;;;12.69;100.00;101578.06;10411053;28;20108;-75
2022/10/07 20:07:39;;;;;;;0.10;0.10;;;;;;;12.57;100.00;101573.94;10408521;28;20029;-75
2022/10/07 20:12:39;;;;;;;0.10;0.10;;;;;;;12.46;100.00;101575.84;10410454;28;20026;-75
2022/10/07 20:17:41;;;;;;;0.10;0.10;;;;;;;12.38;100.00;101564.25;10411098;28;20367;-75
2022/10/07 20:22:42;;;;;;;0.10;0.10;;;;;;;12.33;100.00;101555.84;10410382;28;20104;-74
2022/10/07 20:27:42;;;;;;;0.10;0.10;;;;;;;12.31;100.00;101564.03;10392312;28;20433;-75
2022/10/07 20:32:43;;;;;;;0.00;0.00;;;;;;;12.30;100.00;101550.81;10409812;28;20024;-73
2022/10/07 20:37:43;;;;;;;0.10;0.10;;;;;;;12.23;100.00;101539.91;10409659;28;20026;-74
2022/10/07 20:42:43;;;;;;;0.10;0.10;;;;;;;12.12;100.00;101540.94;10408935;28;20083;-74
2022/10/07 20:47:45;;;;;;;0.10;0.10;;;;;;;12.01;100.00;101535.84;10409901;28;20017;-74
2022/10/07 20:52:45;;;;;;;0.10;0.10;;;;;;;11.91;100.00;101527.91;10390800;28;20095;-74
2022/10/07 20:57:47;;;;;;;0.10;0.10;;;;;;;11.86;100.00;101524.84;10409352;28;20087;-74
2022/10/07 21:02:48;;;;;;;0.05;0.05;;;;;;;11.83;100.00;101517.09;10408854;28;20380;-74
2022/10/07 21:07:48;;;;;;;0.10;0.10;;;;;;;11.78;100.00;101501.56;10405917;28;20025;-73
2022/10/07 21:12:48;;;;;;;0.10;0.10;;;;;;;11.84;100.00;101509.91;10407940;28;20052;-73
2022/10/07 21:17:49;;;;;;;0.10;0.10;;;;;;;11.83;100.00;101500.25;10408264;28;20473;-73
2022/10/07 21:22:50;;;;;;;0.10;0.10;;;;;;;11.82;100.00;101494.06;10408307;28;20425;-75
2022/10/07 21:27:51;;;;;;;0.10;0.10;;;;;;;11.82;100.00;101495.91;10408033;28;20030;-75
2022/10/07 21:32:52;;;;;;;0.00;0.00;;;;;;;11.81;100.00;101488.88;10408035;28;20120;-75
2022/10/07 21:37:52;;;;;;;0.10;0.10;;;;;;;11.77;100.00;101475.81;10407806;28;20029;-74
2022/10/07 21:42:52;;;;;;;0.10;0.10;;;;;;;11.75;100.00;101463.63;10405022;28;20476;-75
2022/10/07 21:47:53;;;;;;;0.10;0.10;;;;;;;11.71;100.00;101463.09;10390265;28;20021;-75
2022/10/07 21:52:53;;;;;;;0.10;0.10;;;;;;;11.68;100.00;101466.06;10407173;28;20368;-75
2022/10/07 21:57:53;;;;;;;0.10;0.10;;;;;;;11.62;100.00;101458.66;10407794;28;20037;-74
2022/10/07 22:02:55;;;;;;;0.10;0.10;;;;;;;11.56;100.00;101454.75;10407156;28;20053;-74
2022/10/07 22:13:14;;;;;;;0.00;0.00;;;;;;;11.43;100.00;101448.09;10404714;28;20086;-74
2022/10/07 22:18:14;;;;;;;0.10;0.10;;;;;;;11.39;100.00;101446.75;10392352;28;20029;-74
2022/10/07 22:23:16;;;;;;;0.10;0.10;;;;;;;11.35;100.00;101448.03;10415120;28;20018;-74
2022/10/07 22:28:16;;;;;;;0.10;0.10;;;;;;;11.29;100.00;101444.13;10414650;28;20026;-74
2022/10/07 22:33:17;;;;;;;0.10;0.10;;;;;;;11.23;100.00;101444.72;10414157;28;20037;-74
2022/10/07 22:38:18;;;;;;;0.10;0.10;;;;;;;11.16;100.00;101436.47;10413857;28;20021;-74
2022/10/07 22:43:18;;;;;;;0.00;0.00;;;;;;;11.06;100.00;101436.53;10414276;28;20030;-74
2022/10/07 22:48:18;;;;;;;0.10;0.10;;;;;;;10.98;100.00;101427.56;10414226;28;20021;-74
2022/10/07 22:53:19;;;;;;;0.00;0.00;;;;;;;10.91;100.00;101423.81;10413697;28;20606;-74
2022/10/07 22:58:19;;;;;;;0.05;0.05;;;;;;;10.83;100.00;101425.38;10413379;28;20018;-74
2022/10/07 23:03:20;;;;;;;0.10;0.10;;;;;;;10.78;100.00;101424.97;10413169;28;20033;-74
2022/10/07 23:08:20;;;;;;;0.10;0.10;;;;;;;10.70;100.00;101410.69;10413046;28;20480;-74
2022/10/07 23:13:20;;;;;;;0.00;0.00;;;;;;;10.76;100.00;101404.78;10412764;28;20075;-74
2022/10/07 23:18:20;;;;;;;0.00;0.00;;;;;;;10.83;100.00;101398.75;10412769;28;20021;-74
2022/10/07 23:23:21;;;;;;;0.10;0.10;;;;;;;10.90;100.00;101401.66;10412894;28;20013;-74
2022/10/07 23:28:24;;;;;;;0.10;0.10;;;;;;;10.94;100.00;101394.19;10412261;28;20487;-74
2022/10/07 23:33:24;;;;;;;0.00;0.00;;;;;;;10.93;100.00;101392.53;10394994;28;20654;-74
2022/10/07 23:38:25;;;;;;;0.00;0.00;;;;;;;10.88;100.00;101396.47;10409387;28;20113;-74